Time;durP1;ratioP1;P1;durP2;ratioP2;P2;SDS_P1;SDS_P2;PMS_P1;PMS_P2;Temp;Humidity;BMP_temperature;BMP_pressure;BME280_temperature;BME280_humidity;BME280_pressure;Samples;Min_cycle;Max_cycle;Signal;HPM_P1;HPM_P2
2022/10/30 00:00:48;;;;;;;5.45;3.08;;;18.80;99.90;;;;;;5038069;28;20189;-73
2022/10/30 00:03:15;;;;;;;6.25;3.25;;;18.80;99.90;;;;;;5037994;28;20175;-71
2022/10/30 00:05:45;;;;;;;4.20;2.95;;;18.80;99.90;;;;;;5040649;28;20170;-71
2022/10/30 00:08:12;;;;;;;5.47;3.17;;;18.80;99.90;;;;;;5034164;28;20288;-71
2022/10/30 00:10:39;;;;;;;4.68;3.38;;;18.80;99.90;;;;;;5024716;28;20174;-72
2022/10/30 00:13:07;;;;;;;9.30;3.38;;;18.80;99.90;;;;;;5033864;28;20173;-73
2022/10/30 00:15:32;;;;;;;4.50;3.22;;;18.80;99.90;;;;;;5034084;28;20202;-72
2022/10/30 00:17:58;;;;;;;7.13;3.85;;;18.80;99.90;;;;;;5033986;28;20192;-73
2022/10/30 00:20:24;;;;;;;5.43;3.30;;;18.80;99.90;;;;;;5032897;28;20189;-72
2022/10/30 00:22:49;;;;;;;6.55;3.60;;;18.70;99.90;;;;;;5033432;28;20197;-71
2022/10/30 00:25:15;;;;;;;7.20;3.42;;;18.70;99.90;;;;;;5034187;28;20234;-72
2022/10/30 00:27:41;;;;;;;4.35;3.10;;;18.70;99.90;;;;;;5034441;28;20182;-72
2022/10/30 00:30:07;;;;;;;5.78;3.25;;;18.70;99.90;;;;;;5032858;28;20179;-71
2022/10/30 00:32:33;;;;;;;9.07;3.65;;;18.70;99.90;;;;;;5026307;28;20217;-71
2022/10/30 00:34:58;;;;;;;4.30;3.00;;;18.70;99.90;;;;;;5023123;28;20202;-71
2022/10/30 00:37:24;;;;;;;7.03;3.63;;;18.70;99.90;;;;;;5033684;28;20188;-71
2022/10/30 00:39:49;;;;;;;6.00;3.22;;;18.70;99.90;;;;;;5017055;28;20194;-71
2022/10/30 00:42:15;;;;;;;5.07;3.25;;;18.70;99.90;;;;;;5033401;28;20201;-71
2022/10/30 00:44:45;;;;;;;6.45;3.53;;;18.70;99.90;;;;;;5037206;28;20178;-72
2022/10/30 00:47:10;;;;;;;7.57;3.50;;;18.70;99.90;;;;;;5033919;28;20264;-71
2022/10/30 00:49:41;;;;;;;7.10;3.08;;;18.70;99.90;;;;;;5031626;28;20321;-71
2022/10/30 00:52:09;;;;;;;7.32;3.30;;;18.70;99.90;;;;;;5031529;28;20186;-72
2022/10/30 00:54:35;;;;;;;6.22;3.42;;;18.70;99.90;;;;;;5042192;28;20178;-72
2022/10/30 00:57:03;;;;;;;6.05;3.15;;;18.70;99.90;;;;;;5034460;28;20198;-72
2022/10/30 00:59:33;;;;;;;6.22;3.33;;;18.70;99.90;;;;;;5034788;28;20269;-71
2022/10/30 01:02:01;;;;;;;6.47;3.25;;;18.70;99.90;;;;;;5035848;28;20178;-71
2022/10/30 01:04:31;;;;;;;6.68;2.88;;;18.70;99.90;;;;;;5027426;28;20178;-71
2022/10/30 01:06:58;;;;;;;5.93;3.20;;;18.70;99.90;;;;;;5034506;28;20238;-72
2022/10/30 01:09:23;;;;;;;4.22;2.78;;;18.70;99.90;;;;;;5035178;28;20185;-72
2022/10/30 01:11:49;;;;;;;4.80;3.15;;;18.70;99.90;;;;;;5034602;28;20198;-72
2022/10/30 01:14:17;;;;;;;4.70;2.78;;;18.70;99.90;;;;;;5032986;28;20178;-72
2022/10/30 01:16:57;;;;;;;9.95;2.97;;;18.60;99.90;;;;;;5036719;28;20175;-72
2022/10/30 01:19:48;;;;;;;4.63;2.90;;;18.60;99.90;;;;;;5029223;28;20189;-72
2022/10/30 01:22:42;;;;;;;4.03;2.53;;;18.60;99.90;;;;;;5031218;28;20199;-72
2022/10/30 01:25:21;;;;;;;4.18;2.55;;;18.60;99.90;;;;;;5032079;28;20190;-72
2022/10/30 01:27:51;;;;;;;4.65;2.97;;;18.60;99.90;;;;;;5036345;28;20247;-72
2022/10/30 01:30:35;;;;;;;5.05;2.75;;;18.60;99.90;;;;;;5033481;28;20181;-72
2022/10/30 01:33:28;;;;;;;3.20;2.38;;;18.60;99.90;;;;;;5031315;28;20206;-72
2022/10/30 01:36:11;;;;;;;5.80;2.90;;;18.60;99.90;;;;;;5032755;28;20196;-72
2022/10/30 01:38:52;;;;;;;3.80;2.47;;;18.60;99.90;;;;;;5039550;28;20304;-72
2022/10/30 01:41:20;;;;;;;4.22;2.55;;;18.60;99.90;;;;;;5040343;28;20191;-72
2022/10/30 01:43:54;;;;;;;6.95;3.00;;;18.50;99.90;;;;;;5037226;28;20235;-72
2022/10/30 01:46:19;;;;;;;6.35;3.40;;;18.50;99.90;;;;;;5029702;28;20201;-72
2022/10/30 01:49:09;;;;;;;3.95;2.65;;;18.50;99.90;;;;;;5038306;28;20170;-71
2022/10/30 01:52:07;;;;;;;4.97;3.45;;;18.40;99.90;;;;;;5039361;28;20170;-73
2022/10/30 01:54:57;;;;;;;5.35;3.08;;;18.40;99.90;;;;;;5038206;28;20233;-72
2022/10/30 01:57:48;;;;;;;4.55;2.85;;;18.40;99.90;;;;;;5039136;28;20244;-72
2022/10/30 02:00:19;;;;;;;10.23;3.67;;;18.30;99.90;;;;;;5039209;28;20202;-72
2022/10/30 02:02:48;;;;;;;4.57;3.00;;;18.30;99.90;;;;;;5055006;28;20190;-72
2022/10/30 02:05:39;;;;;;;5.05;2.80;;;18.30;99.90;;;;;;5039246;28;20173;-72
2022/10/30 02:08:05;;;;;;;4.50;2.67;;;18.30;99.90;;;;;;5032229;28;20208;-71
2022/10/30 02:10:34;;;;;;;3.85;2.65;;;18.30;99.90;;;;;;5031230;28;20301;-72
2022/10/30 02:13:02;;;;;;;4.70;2.95;;;18.30;99.90;;;;;;5034491;28;20209;-72
2022/10/30 02:15:32;;;;;;;4.63;2.83;;;18.20;99.90;;;;;;5033768;28;20237;-72
2022/10/30 02:17:58;;;;;;;5.15;2.80;;;18.30;99.90;;;;;;5028696;28;20250;-72
2022/10/30 02:20:24;;;;;;;5.35;3.03;;;18.20;99.90;;;;;;5034865;28;20284;-72
2022/10/30 02:22:50;;;;;;;5.55;3.05;;;18.20;99.90;;;;;;5033618;28;20179;-72
2022/10/30 02:25:16;;;;;;;5.30;3.55;;;18.10;99.90;;;;;;5048032;28;20174;-72
2022/10/30 02:27:43;;;;;;;4.45;2.80;;;18.00;99.90;;;;;;5028725;28;20201;-72
2022/10/30 02:30:10;;;;;;;5.10;3.20;;;18.00;99.90;;;;;;5036027;28;20186;-72
2022/10/30 02:32:36;;;;;;;6.05;2.80;;;18.00;99.90;;;;;;5040056;28;20264;-71
2022/10/30 02:35:07;;;;;;;5.78;2.83;;;17.90;99.90;;;;;;5036511;28;20284;-72
2022/10/30 02:37:34;;;;;;;5.10;3.17;;;17.90;99.90;;;;;;5040781;28;20182;-72
2022/10/30 02:40:03;;;;;;;5.25;2.97;;;17.80;99.90;;;;;;5049547;28;20271;-72
2022/10/30 02:42:31;;;;;;;7.45;2.92;;;17.80;99.90;;;;;;5033667;28;20214;-72
2022/10/30 02:44:59;;;;;;;5.57;3.00;;;17.70;99.90;;;;;;5045156;28;20177;-72
2022/10/30 02:47:27;;;;;;;4.43;2.78;;;17.70;99.90;;;;;;5037003;28;20170;-72
2022/10/30 02:49:53;;;;;;;6.78;3.28;;;17.60;99.90;;;;;;5057967;28;20297;-72
2022/10/30 02:52:21;;;;;;;5.40;3.10;;;17.60;99.90;;;;;;5038891;28;20186;-72
2022/10/30 02:54:49;;;;;;;5.82;3.40;;;17.60;99.90;;;;;;5051973;28;20189;-72
2022/10/30 02:57:14;;;;;;;4.90;2.97;;;17.60;99.90;;;;;;5051082;28;20178;-72
2022/10/30 02:59:40;;;;;;;7.15;3.10;;;17.60;99.90;;;;;;5039754;28;20184;-72
2022/10/30 03:02:08;;;;;;;5.55;3.30;;;17.60;99.90;;;;;;5042522;28;20186;-72
2022/10/30 03:04:33;;;;;;;5.07;3.15;;;17.60;99.90;;;;;;5035972;28;20174;-73
2022/10/30 03:06:59;;;;;;;6.15;3.22;;;17.60;99.90;;;;;;5037178;28;20245;-72
2022/10/30 03:09:24;;;;;;;5.05;2.83;;;17.60;99.90;;;;;;5027124;28;20181;-72
2022/10/30 03:11:50;;;;;;;4.80;3.15;;;17.60;99.90;;;;;;5031981;28;20175;-71
2022/10/30 03:14:15;;;;;;;6.22;3.00;;;17.60;99.90;;;;;;5031737;28;20182;-72
2022/10/30 03:16:41;;;;;;;7.50;3.20;;;17.50;99.90;;;;;;5034224;28;20295;-72
2022/10/30 03:19:07;;;;;;;4.18;2.90;;;17.50;99.90;;;;;;5034895;28;20178;-73
2022/10/30 03:21:35;;;;;;;5.55;3.00;;;17.50;99.90;;;;;;5032045;28;20255;-72
2022/10/30 03:24:00;;;;;;;4.72;3.10;;;17.50;99.90;;;;;;5027687;28;20189;-72
2022/10/30 03:26:26;;;;;;;5.05;3.42;;;17.50;99.90;;;;;;5029473;28;20182;-72
2022/10/30 03:28:52;;;;;;;4.78;3.17;;;17.50;99.90;;;;;;5051090;28;20209;-73
2022/10/30 03:31:21;;;;;;;4.97;3.38;;;17.40;99.90;;;;;;5034255;28;20265;-72
2022/10/30 03:33:47;;;;;;;4.05;3.03;;;17.40;99.90;;;;;;5051575;28;20193;-73
2022/10/30 03:36:17;;;;;;;4.72;2.83;;;17.40;99.90;;;;;;5033839;28;20182;-72
2022/10/30 03:38:43;;;;;;;7.60;3.40;;;17.40;99.90;;;;;;5032122;28;20197;-72
2022/10/30 03:41:11;;;;;;;5.55;3.08;;;17.40;99.90;;;;;;5032691;28;20194;-73
2022/10/30 03:43:36;;;;;;;5.20;3.33;;;17.40;99.90;;;;;;5025727;28;20201;-72
2022/10/30 03:46:02;;;;;;;5.85;3.30;;;17.40;99.90;;;;;;5034778;28;20181;-72
2022/10/30 03:48:28;;;;;;;4.82;3.08;;;17.30;99.90;;;;;;5034611;28;20237;-72
2022/10/30 03:50:55;;;;;;;6.63;3.53;;;17.30;99.90;;;;;;5034196;28;20197;-72
2022/10/30 03:53:22;;;;;;;4.25;3.13;;;17.20;99.90;;;;;;5035414;28;20182;-72
2022/10/30 03:55:51;;;;;;;4.28;3.20;;;17.20;99.90;;;;;;5035288;28;20201;-72
2022/10/30 03:58:17;;;;;;;3.78;2.70;;;17.20;99.90;;;;;;5036096;28;20206;-72
2022/10/30 04:00:42;;;;;;;6.07;3.30;;;17.10;99.90;;;;;;5029449;28;20204;-72
2022/10/30 04:03:09;;;;;;;7.93;3.40;;;17.10;99.90;;;;;;5051824;28;20178;-72
2022/10/30 04:05:37;;;;;;;7.03;3.22;;;17.00;99.90;;;;;;5034811;28;20198;-72
2022/10/30 04:08:09;;;;;;;5.03;3.25;;;17.00;99.90;;;;;;5045269;28;20181;-72
2022/10/30 04:10:35;;;;;;;5.55;3.10;;;17.00;99.90;;;;;;5035985;28;20265;-72
2022/10/30 04:13:06;;;;;;;6.53;3.20;;;16.90;99.90;;;;;;5036543;28;20220;-72
2022/10/30 04:15:32;;;;;;;6.03;3.15;;;16.90;99.90;;;;;;5045876;28;20185;-72
2022/10/30 04:17:58;;;;;;;4.18;2.72;;;16.90;99.90;;;;;;5035709;28;20189;-72
2022/10/30 04:20:27;;;;;;;4.65;2.80;;;16.90;99.90;;;;;;5034674;28;20194;-72
2022/10/30 04:23:03;;;;;;;4.93;3.03;;;16.90;99.90;;;;;;5032422;28;20166;-72
2022/10/30 04:25:30;;;;;;;7.53;3.10;;;16.80;99.90;;;;;;5036604;28;20284;-72
2022/10/30 04:28:00;;;;;;;4.97;3.45;;;16.80;99.90;;;;;;5033836;28;20264;-72
2022/10/30 04:30:34;;;;;;;6.45;3.30;;;16.80;99.90;;;;;;5036425;28;20182;-72
2022/10/30 04:33:01;;;;;;;6.80;3.42;;;16.80;99.90;;;;;;5023004;28;20201;-72
2022/10/30 04:35:30;;;;;;;5.75;3.25;;;16.70;99.90;;;;;;5031022;28;20228;-72
2022/10/30 04:38:03;;;;;;;5.90;3.05;;;16.70;99.90;;;;;;5035129;28;20224;-71
2022/10/30 04:40:31;;;;;;;4.82;3.15;;;16.60;99.90;;;;;;5034014;28;20210;-72
2022/10/30 04:43:01;;;;;;;5.05;3.20;;;16.70;99.90;;;;;;5038430;28;20178;-73
2022/10/30 04:45:27;;;;;;;5.90;3.20;;;16.70;99.90;;;;;;5050817;28;20182;-72
2022/10/30 04:48:02;;;;;;;8.18;3.45;;;16.70;99.90;;;;;;5037785;28;20222;-72
2022/10/30 04:50:29;;;;;;;5.72;3.20;;;16.60;99.90;;;;;;5035433;28;20175;-72
2022/10/30 04:53:03;;;;;;;7.22;2.85;;;16.60;99.90;;;;;;5051962;28;20179;-72
2022/10/30 04:55:29;;;;;;;5.43;3.13;;;16.60;99.90;;;;;;5036351;28;20207;-73
2022/10/30 04:57:59;;;;;;;6.00;3.05;;;16.60;99.90;;;;;;5034000;28;20178;-72
2022/10/30 05:00:25;;;;;;;6.50;3.50;;;16.60;99.90;;;;;;5053757;28;20197;-72
2022/10/30 05:02:53;;;;;;;5.53;3.13;;;16.50;99.90;;;;;;5037856;28;20206;-73
2022/10/30 05:05:19;;;;;;;5.35;3.20;;;16.50;99.90;;;;;;5054503;28;20182;-72
2022/10/30 05:07:45;;;;;;;5.80;3.17;;;16.50;99.90;;;;;;5037882;28;20193;-72
2022/10/30 05:10:17;;;;;;;6.85;3.42;;;16.40;99.90;;;;;;5033093;28;20174;-72
2022/10/30 05:12:44;;;;;;;6.35;2.92;;;16.40;99.90;;;;;;5054271;28;20177;-72
2022/10/30 05:15:13;;;;;;;5.53;3.55;;;16.40;99.90;;;;;;5038665;28;20289;-72
2022/10/30 05:17:40;;;;;;;6.00;3.55;;;16.30;99.90;;;;;;5038804;28;20182;-72
2022/10/30 05:20:06;;;;;;;6.20;3.35;;;16.30;99.90;;;;;;5039272;28;20200;-71
2022/10/30 05:22:34;;;;;;;4.97;2.92;;;16.20;99.90;;;;;;5038895;28;20178;-72
2022/10/30 05:25:00;;;;;;;5.45;3.15;;;16.20;99.90;;;;;;5037714;28;20198;-72
2022/10/30 05:27:30;;;;;;;7.05;3.60;;;16.20;99.90;;;;;;5037863;28;20229;-73
2022/10/30 05:29:56;;;;;;;7.53;3.40;;;16.10;99.90;;;;;;5033156;28;20171;-73
2022/10/30 05:32:24;;;;;;;3.92;2.92;;;16.10;99.90;;;;;;5037928;28;20173;-72
2022/10/30 05:34:50;;;;;;;4.72;2.97;;;16.00;99.90;;;;;;5039220;28;20174;-71
2022/10/30 05:37:18;;;;;;;4.82;3.22;;;15.90;99.90;;;;;;5040207;28;20236;-72
2022/10/30 05:39:43;;;;;;;4.57;3.00;;;15.90;99.90;;;;;;5036697;28;20198;-72
2022/10/30 05:42:09;;;;;;;7.35;3.50;;;15.80;99.90;;;;;;5040440;28;20207;-73
2022/10/30 05:44:34;;;;;;;5.72;3.50;;;15.80;99.90;;;;;;5038508;28;20197;-72
2022/10/30 05:47:02;;;;;;;4.85;3.35;;;15.80;99.90;;;;;;5040415;28;20202;-71
2022/10/30 05:49:28;;;;;;;5.70;3.53;;;15.70;99.90;;;;;;5049226;28;20256;-72
2022/10/30 05:51:53;;;;;;;8.25;3.38;;;15.70;99.90;;;;;;5036795;28;20284;-72
2022/10/30 05:54:19;;;;;;;5.28;3.55;;;15.60;99.90;;;;;;5038784;28;20177;-72
2022/10/30 05:56:47;;;;;;;4.55;3.40;;;15.60;99.90;;;;;;5036304;28;20235;-72
2022/10/30 05:59:15;;;;;;;5.07;3.30;;;15.50;99.90;;;;;;5032658;28;20320;-73
2022/10/30 06:01:40;;;;;;;5.90;3.53;;;15.40;99.90;;;;;;5034677;28;20222;-72
2022/10/30 06:04:07;;;;;;;4.65;3.35;;;15.40;99.90;;;;;;5040380;28;20213;-72
2022/10/30 06:06:33;;;;;;;6.47;3.40;;;15.40;99.90;;;;;;5035936;28;20194;-73
2022/10/30 06:08:58;;;;;;;6.13;3.78;;;15.40;99.90;;;;;;5040556;28;20215;-73
2022/10/30 06:11:24;;;;;;;5.68;3.55;;;15.40;99.90;;;;;;5036225;28;20178;-71
2022/10/30 06:13:49;;;;;;;5.28;3.80;;;15.40;99.90;;;;;;5035975;28;20261;-72
2022/10/30 06:16:15;;;;;;;8.95;3.85;;;15.30;99.90;;;;;;5052410;28;20173;-72
2022/10/30 06:18:40;;;;;;;7.57;4.05;;;15.30;99.90;;;;;;5035172;28;20182;-72
2022/10/30 06:21:07;;;;;;;26.23;16.60;;;15.30;99.90;;;;;;5036478;28;20190;-72
2022/10/30 06:23:34;;;;;;;15.38;7.97;;;15.30;99.90;;;;;;5034287;28;20174;-72
2022/10/30 06:26:00;;;;;;;9.27;6.10;;;15.30;99.90;;;;;;5050979;28;20206;-72
2022/10/30 06:28:28;;;;;;;8.95;5.72;;;15.30;99.90;;;;;;5032316;28;20237;-72
2022/10/30 06:30:54;;;;;;;7.22;4.70;;;15.30;99.90;;;;;;5028670;28;20190;-72
2022/10/30 06:33:20;;;;;;;8.48;4.20;;;15.30;99.90;;;;;;5029750;28;20265;-72
2022/10/30 06:35:48;;;;;;;8.73;4.25;;;15.30;99.90;;;;;;5039980;28;20235;-72
2022/10/30 06:38:15;;;;;;;7.00;3.88;;;15.30;99.90;;;;;;5040859;28;20393;-72
2022/10/30 06:40:40;;;;;;;7.15;3.97;;;15.30;99.90;;;;;;5037179;28;20209;-72
2022/10/30 06:43:06;;;;;;;9.32;5.20;;;15.30;99.90;;;;;;5037110;28;20182;-71
2022/10/30 06:45:32;;;;;;;8.25;4.47;;;15.30;99.90;;;;;;5037917;28;20186;-71
2022/10/30 06:48:00;;;;;;;6.50;4.80;;;15.30;99.90;;;;;;5039977;28;20205;-72
2022/10/30 06:50:28;;;;;;;6.10;4.45;;;15.30;99.90;;;;;;5035915;28;20300;-72
2022/10/30 06:52:56;;;;;;;6.25;4.40;;;15.30;99.90;;;;;;5034624;28;20182;-70
2022/10/30 06:55:22;;;;;;;8.68;4.63;;;15.30;99.90;;;;;;5053496;28;20178;-71
2022/10/30 06:57:55;;;;;;;8.02;4.50;;;15.30;99.90;;;;;;5029241;28;20263;-71
2022/10/30 07:00:23;;;;;;;9.77;4.53;;;15.30;99.90;;;;;;5037242;28;20220;-71
2022/10/30 07:02:57;;;;;;;7.03;4.32;;;15.30;99.90;;;;;;5037673;28;20205;-71
2022/10/30 07:05:23;;;;;;;6.18;4.15;;;15.30;99.90;;;;;;5039223;28;20198;-73
2022/10/30 07:07:48;;;;;;;6.85;4.20;;;15.30;99.90;;;;;;5036128;28;20209;-74
2022/10/30 07:10:14;;;;;;;5.55;3.97;;;15.30;99.90;;;;;;5036181;28;20173;-72
2022/10/30 07:12:39;;;;;;;22.08;12.65;;;15.30;99.90;;;;;;5038178;28;20269;-71
2022/10/30 07:15:08;;;;;;;12.82;7.45;;;15.30;99.90;;;;;;5039761;28;20205;-71
2022/10/30 07:17:33;;;;;;;8.27;5.82;;;15.30;99.90;;;;;;5033760;28;20178;-73
2022/10/30 07:20:01;;;;;;;9.35;5.20;;;15.40;99.90;;;;;;5036873;28;20201;-71
2022/10/30 07:22:29;;;;;;;7.15;4.80;;;15.40;99.90;;;;;;5033619;28;20178;-71
2022/10/30 07:24:54;;;;;;;7.03;4.82;;;15.40;99.90;;;;;;5048003;28;20174;-73
2022/10/30 07:27:20;;;;;;;6.03;4.20;;;15.40;99.90;;;;;;5035634;28;20197;-73
2022/10/30 07:29:50;;;;;;;8.07;4.50;;;15.40;99.90;;;;;;5032259;28;20244;-72
2022/10/30 07:32:15;;;;;;;5.93;4.15;;;15.50;99.90;;;;;;5030712;28;20276;-72
2022/10/30 07:34:41;;;;;;;8.85;4.20;;;15.50;99.90;;;;;;5033206;28;20274;-71
2022/10/30 07:37:07;;;;;;;6.80;4.07;;;15.50;99.90;;;;;;5039408;28;20395;-70
2022/10/30 07:39:32;;;;;;;7.25;4.32;;;15.60;99.90;;;;;;5019092;28;20209;-72
2022/10/30 07:41:58;;;;;;;6.70;4.03;;;15.60;99.90;;;;;;5035773;28;20228;-70
2022/10/30 07:44:26;;;;;;;6.72;4.38;;;15.70;99.90;;;;;;5036388;28;20189;-70
2022/10/30 07:46:54;;;;;;;6.15;4.32;;;15.70;99.90;;;;;;5027681;28;20178;-70
2022/10/30 07:49:19;;;;;;;6.68;4.35;;;15.70;99.90;;;;;;5031336;28;20202;-70
2022/10/30 07:51:45;;;;;;;8.75;5.85;;;15.80;99.90;;;;;;5041832;28;20231;-73
2022/10/30 07:54:13;;;;;;;10.07;5.03;;;15.80;99.90;;;;;;5035639;28;20170;-74
2022/10/30 07:56:38;;;;;;;8.13;4.35;;;15.90;99.90;;;;;;5031968;28;20209;-72
2022/10/30 07:59:04;;;;;;;6.38;4.30;;;16.00;99.90;;;;;;5033498;28;20206;-73
2022/10/30 08:01:30;;;;;;;6.28;4.15;;;16.00;99.90;;;;;;5033683;28;20198;-74
2022/10/30 08:03:55;;;;;;;6.38;3.95;;;16.10;99.90;;;;;;5037028;28;20177;-74
2022/10/30 08:06:21;;;;;;;9.77;4.57;;;16.10;99.90;;;;;;5031371;28;20175;-73
2022/10/30 08:08:47;;;;;;;6.13;3.78;;;16.20;99.90;;;;;;5037280;28;20271;-73
2022/10/30 08:11:12;;;;;;;5.50;4.13;;;16.30;99.90;;;;;;5034402;28;20241;-73
2022/10/30 08:13:40;;;;;;;8.95;3.85;;;16.30;99.90;;;;;;5034010;28;20195;-73
2022/10/30 08:16:06;;;;;;;5.40;3.97;;;16.40;99.90;;;;;;5040275;28;20184;-73
2022/10/30 08:18:32;;;;;;;6.97;3.83;;;16.50;99.90;;;;;;5051609;28;20201;-74
2022/10/30 08:20:57;;;;;;;6.43;4.20;;;16.60;99.90;;;;;;5049756;28;20185;-73
2022/10/30 08:23:23;;;;;;;5.40;3.75;;;16.70;99.90;;;;;;5038851;28;20196;-72
2022/10/30 08:25:51;;;;;;;8.90;3.92;;;16.80;99.90;;;;;;5043545;28;20209;-74
2022/10/30 08:28:17;;;;;;;7.03;3.72;;;16.90;99.90;;;;;;5030937;28;20205;-72
2022/10/30 08:30:42;;;;;;;9.38;6.32;;;17.00;99.90;;;;;;5045863;28;20186;-71
2022/10/30 08:33:14;;;;;;;7.97;4.53;;;17.10;99.90;;;;;;5039746;28;20182;-73
2022/10/30 08:35:47;;;;;;;7.20;4.00;;;17.30;99.90;;;;;;5045379;28;20178;-73
2022/10/30 08:38:15;;;;;;;6.53;3.75;;;17.40;99.90;;;;;;5054122;28;20271;-72
2022/10/30 08:40:40;;;;;;;6.60;3.95;;;17.50;99.90;;;;;;5042445;28;20256;-73
2022/10/30 08:43:07;;;;;;;4.85;3.45;;;17.60;99.90;;;;;;5037194;28;20242;-73
2022/10/30 08:45:33;;;;;;;5.18;3.65;;;17.70;99.90;;;;;;5052476;28;20257;-74
2022/10/30 08:48:05;;;;;;;5.75;3.60;;;17.80;99.90;;;;;;5036141;28;20208;-71
2022/10/30 08:50:33;;;;;;;7.68;3.40;;;17.90;99.90;;;;;;5020090;28;20182;-73
2022/10/30 08:53:04;;;;;;;6.82;3.25;;;18.00;99.90;;;;;;5038374;28;20217;-73
2022/10/30 08:55:31;;;;;;;6.10;3.38;;;18.20;99.90;;;;;;5028329;28;20243;-72
2022/10/30 08:58:00;;;;;;;6.75;3.67;;;18.30;99.90;;;;;;5045748;28;20240;-70
2022/10/30 09:00:26;;;;;;;8.23;3.42;;;18.60;99.90;;;;;;5043337;28;20263;-72
2022/10/30 09:02:52;;;;;;;6.68;3.40;;;19.00;99.90;;;;;;5043758;28;20174;-71
2022/10/30 09:05:22;;;;;;;6.28;3.30;;;19.50;99.90;;;;;;5036207;28;20193;-72
2022/10/30 09:07:48;;;;;;;9.32;3.33;;;19.90;99.90;;;;;;5037120;28;20266;-73
2022/10/30 09:10:14;;;;;;;4.22;2.90;;;20.40;99.90;;;;;;5032687;28;20246;-72
2022/10/30 09:12:40;;;;;;;4.30;3.22;;;20.90;99.90;;;;;;5038158;28;20269;-74
2022/10/30 09:15:06;;;;;;;4.80;3.03;;;21.30;99.90;;;;;;5042386;28;20221;-73
2022/10/30 09:17:32;;;;;;;7.85;3.40;;;21.70;99.90;;;;;;5045549;28;20186;-72
2022/10/30 09:19:57;;;;;;;6.93;3.60;;;21.90;99.90;;;;;;5053841;28;20228;-74
2022/10/30 09:22:23;;;;;;;7.07;3.05;;;22.10;99.90;;;;;;5044290;28;20190;-74
2022/10/30 09:24:49;;;;;;;5.15;3.30;;;22.10;99.90;;;;;;5036201;28;20219;-71
2022/10/30 09:27:19;;;;;;;6.90;3.13;;;22.10;99.90;;;;;;5043825;28;20201;-71
2022/10/30 09:29:47;;;;;;;5.70;3.00;;;22.30;99.90;;;;;;5041452;28;20199;-71
2022/10/30 09:32:17;;;;;;;5.60;2.95;;;22.40;99.90;;;;;;5039898;28;20277;-73
2022/10/30 09:34:47;;;;;;;7.53;3.20;;;22.60;99.90;;;;;;5036965;28;20174;-72
2022/10/30 09:37:16;;;;;;;5.13;3.15;;;22.90;99.90;;;;;;5036901;28;20394;-71
2022/10/30 09:39:41;;;;;;;4.93;2.83;;;23.10;99.90;;;;;;5033159;28;20181;-73
2022/10/30 09:42:35;;;;;;;4.40;3.20;;;23.30;99.90;;;;;;5033250;28;20200;-74
2022/10/30 09:45:23;;;;;;;5.82;2.97;;;23.50;99.90;;;;;;5033530;28;20247;-73
2022/10/30 09:48:12;;;;;;;5.63;2.60;;;23.60;99.90;;;;;;5036468;28;20192;-73
2022/10/30 09:50:38;;;;;;;4.38;2.67;;;23.60;99.90;;;;;;5038175;28;20202;-74
2022/10/30 09:53:35;;;;;;;6.65;2.80;;;23.60;99.90;;;;;;5033337;28;20193;-75
2022/10/30 09:56:13;;;;;;;7.57;2.97;;;23.70;99.90;;;;;;5052887;28;20186;-74
2022/10/30 09:59:02;;;;;;;6.43;3.35;;;23.70;99.90;;;;;;5036486;28;20225;-74
2022/10/30 10:01:40;;;;;;;4.65;2.70;;;23.70;99.90;;;;;;5036595;28;20189;-73
2022/10/30 10:04:18;;;;;;;5.68;2.97;;;23.70;99.90;;;;;;5035955;28;20202;-74
2022/10/30 10:06:47;;;;;;;8.48;3.20;;;23.80;99.90;;;;;;5035318;28;20191;-73
2022/10/30 10:09:18;;;;;;;6.00;3.05;;;23.90;99.90;;;;;;5036447;28;20220;-73
2022/10/30 10:11:58;;;;;;;6.38;4.32;;;24.00;99.90;;;;;;5032791;28;20216;-73
2022/10/30 10:14:27;;;;;;;5.68;3.60;;;24.00;99.90;;;;;;5026629;28;20173;-75
2022/10/30 10:16:57;;;;;;;7.57;3.42;;;24.00;99.90;;;;;;5036369;28;20270;-75
2022/10/30 10:19:39;;;;;;;5.95;3.00;;;24.10;99.90;;;;;;5036125;28;20284;-74
2022/10/30 10:22:13;;;;;;;4.90;3.13;;;24.20;99.90;;;;;;5033051;28;20433;-74
2022/10/30 10:24:43;;;;;;;6.00;2.78;;;24.10;99.90;;;;;;5051170;28;20227;-75
2022/10/30 10:27:36;;;;;;;5.55;2.70;;;24.20;99.90;;;;;;5050211;28;20216;-73
2022/10/30 10:30:19;;;;;;;4.63;2.50;;;24.20;99.90;;;;;;5018088;28;20182;-74
2022/10/30 10:32:44;;;;;;;4.05;2.67;;;24.20;99.90;;;;;;5036334;28;20320;-74
2022/10/30 10:35:28;;;;;;;4.20;2.92;;;24.30;99.90;;;;;;5021933;28;20175;-74
2022/10/30 10:38:29;;;;;;;3.97;2.33;;;24.30;99.90;;;;;;5042581;28;20197;-74
2022/10/30 10:41:40;;;;;;;4.18;2.80;;;24.40;99.90;;;;;;5040387;28;20201;-73
2022/10/30 10:44:33;;;;;;;4.60;2.92;;;24.50;99.90;;;;;;4997587;28;20261;-75
2022/10/30 10:47:31;;;;;;;10.35;2.90;;;24.50;99.90;;;;;;5025573;28;20170;-73
2022/10/30 10:50:23;;;;;;;10.55;3.03;;;24.60;99.90;;;;;;5020100;28;20211;-73
2022/10/30 10:52:59;;;;;;;5.75;2.78;;;24.70;99.90;;;;;;5033432;28;20193;-73
2022/10/30 10:55:30;;;;;;;11.02;3.33;;;24.80;99.90;;;;;;5025375;28;20178;-73
2022/10/30 10:58:07;;;;;;;6.00;2.65;;;24.90;99.90;;;;;;5027769;28;20178;-73
2022/10/30 11:00:35;;;;;;;7.35;2.92;;;24.90;99.90;;;;;;5021239;28;20210;-72
2022/10/30 11:03:22;;;;;;;4.53;2.50;;;25.00;99.90;;;;;;5035478;28;20289;-74
2022/10/30 11:05:57;;;;;;;6.05;2.97;;;25.10;99.90;;;;;;5045331;28;20170;-76
2022/10/30 11:08:28;;;;;;;5.53;2.80;;;25.20;99.90;;;;;;5025547;28;20174;-73
2022/10/30 11:11:01;;;;;;;8.73;2.63;;;25.40;99.90;;;;;;5034599;28;20244;-73
2022/10/30 11:13:39;;;;;;;9.10;2.55;;;25.50;99.90;;;;;;5036065;28;20181;-75
2022/10/30 11:16:23;;;;;;;5.55;2.63;;;25.60;99.90;;;;;;5035348;28;20182;-74
2022/10/30 11:18:54;;;;;;;5.35;2.92;;;25.70;99.90;;;;;;5031918;28;20218;-73
2022/10/30 11:21:25;;;;;;;7.78;2.80;;;25.70;99.90;;;;;;5034606;28;20205;-75
2022/10/30 11:23:53;;;;;;;4.35;2.80;;;25.70;99.90;;;;;;5034628;28;20189;-73
2022/10/30 11:26:27;;;;;;;5.07;2.67;;;25.70;99.90;;;;;;5044101;28;20182;-74
2022/10/30 11:29:13;;;;;;;3.67;2.47;;;25.80;99.90;;;;;;5028588;28;20202;-75
2022/10/30 11:31:46;;;;;;;6.28;2.60;;;25.80;99.90;;;;;;5024258;28;20202;-75
2022/10/30 11:34:17;;;;;;;6.00;2.35;;;25.80;99.90;;;;;;5034708;28;20208;-74
2022/10/30 11:36:53;;;;;;;6.18;2.75;;;25.80;99.90;;;;;;5033210;28;20265;-75
2022/10/30 11:39:20;;;;;;;4.15;2.40;;;25.70;99.90;;;;;;5029108;28;20228;-74
2022/10/30 11:42:12;;;;;;;5.07;2.65;;;25.70;99.90;;;;;;5051368;28;20221;-74
2022/10/30 11:44:46;;;;;;;5.55;2.60;;;25.80;99.90;;;;;;5034866;28;20193;-74
2022/10/30 11:47:14;;;;;;;4.50;2.65;;;25.80;99.90;;;;;;5034818;28;20204;-74
2022/10/30 11:49:45;;;;;;;5.07;2.95;;;25.90;99.90;;;;;;5034283;28;20181;-75
2022/10/30 11:52:17;;;;;;;5.55;2.58;;;25.90;99.90;;;;;;5034094;28;20166;-74
2022/10/30 11:54:47;;;;;;;4.40;2.65;;;26.00;99.90;;;;;;5028758;28;20201;-74
2022/10/30 11:57:58;;;;;;;5.63;2.95;;;26.00;99.90;;;;;;5034106;28;20174;-75
2022/10/30 12:00:32;;;;;;;7.55;2.97;;;26.10;99.90;;;;;;4995718;28;20273;-74
2022/10/30 12:03:04;;;;;;;6.55;2.85;;;26.10;99.90;;;;;;5022354;28;20216;-74
2022/10/30 12:05:35;;;;;;;5.13;2.90;;;26.10;99.90;;;;;;5036366;28;20193;-75
2022/10/30 12:08:06;;;;;;;5.15;2.55;;;26.20;99.90;;;;;;5033895;28;20170;-74
2022/10/30 12:10:48;;;;;;;4.05;2.67;;;26.20;99.90;;;;;;5033869;28;20182;-73
2022/10/30 12:13:15;;;;;;;4.35;2.83;;;26.20;99.90;;;;;;5034109;28;20173;-74
2022/10/30 12:15:43;;;;;;;4.03;2.63;;;26.20;99.90;;;;;;5033861;28;20213;-75
2022/10/30 12:18:17;;;;;;;5.07;2.60;;;26.30;99.90;;;;;;5024596;28;20182;-75
2022/10/30 12:20:47;;;;;;;9.20;2.90;;;26.30;99.90;;;;;;5034502;28;20197;-74
2022/10/30 12:23:23;;;;;;;4.00;2.38;;;26.30;99.90;;;;;;5051050;28;20197;-74
2022/10/30 12:25:56;;;;;;;6.05;2.80;;;26.30;99.90;;;;;;5034139;28;20173;-74
2022/10/30 12:28:25;;;;;;;6.45;2.75;;;26.20;99.90;;;;;;5033824;28;20190;-74
2022/10/30 12:31:03;;;;;;;4.50;2.30;;;26.20;99.90;;;;;;5033378;28;20202;-75
2022/10/30 12:34:09;;;;;;;4.10;2.40;;;26.10;99.90;;;;;;5033615;28;20216;-74
2022/10/30 12:36:43;;;;;;;5.82;2.33;;;26.00;99.90;;;;;;5009075;28;20189;-73
2022/10/30 12:39:14;;;;;;;6.97;2.40;;;25.90;99.90;;;;;;5033776;28;20202;-74
2022/10/30 12:42:06;;;;;;;4.15;2.28;;;25.90;99.90;;;;;;5034309;28;20199;-72
2022/10/30 12:44:50;;;;;;;4.78;2.67;;;25.80;99.90;;;;;;5023150;28;20179;-74
2022/10/30 12:47:28;;;;;;;4.38;2.10;;;25.70;99.90;;;;;;5023855;28;20206;-75
2022/10/30 12:50:01;;;;;;;4.95;2.60;;;25.60;99.90;;;;;;5030419;28;20167;-74
2022/10/30 12:52:47;;;;;;;6.68;2.80;;;25.50;99.90;;;;;;5034067;28;20240;-73
2022/10/30 12:55:21;;;;;;;6.10;2.40;;;25.50;99.90;;;;;;5035046;28;20174;-73
2022/10/30 12:57:55;;;;;;;4.20;2.40;;;25.30;99.90;;;;;;5017063;28;20171;-74
2022/10/30 13:00:27;;;;;;;4.47;2.30;;;25.20;99.90;;;;;;5049807;28;20301;-74
2022/10/30 13:03:01;;;;;;;8.15;2.30;;;25.10;99.90;;;;;;5033477;28;20269;-72